Ida — C4CZ2 — position and weather

sailwx.info

Track history (hours):
 
Tides and Currents Weather Stations Pressure Air Temp Water Temp Dewpoint Dewpoint Depression Visibility Wind Speed Wind Dir Waves Ship Positions

Ida

Last reported at 2016-Aug-05 04:31 UTC. Time now 2016-Aug-25 11:28 UTC.
Position N 54°56' E 015°34'.
Warning: this ship's position is 20 days out of date.

Length 82 m; draft 3 m.

Type: Cargo ship. MMSI: 210319000.

Date/timePositionNaut miles runAvg speedWind from/ knotsBaromVisibWave heightAir tempDewpointWater temp
2016-Aug-05 04:31N 54°56' E 015°34'1010.3
2016-Aug-05 03:31N 54°54' E 015°17'1010.0
2016-Aug-05 02:33N 54°52' E 015°00'1010.0
2016-Aug-05 01:33N 54°53' E 014°43'10 9.7
2016-Aug-05 00:33N 54°53' E 014°26'10 9.9
2016-Aug-04 23:33N 54°54' E 014°09'10 9.7
2016-Aug-04 22:33N 54°54' E 013°52'39 9.6
2016-Aug-04 18:33N 54°42' E 012°48'19 9.5
2016-Aug-04 16:31N 54°32' E 012°19'8 8.8
2016-Aug-04 15:33N 54°25' E 012°10'9 9.3
2016-Aug-04 14:33N 54°24' E 011°54'9 9.5
2016-Aug-04 13:34N 54°27' E 011°39'10 9.5
2016-Aug-04 12:33N 54°31' E 011°24'9 9.3
2016-Aug-04 11:33N 54°35' E 011°09'10 9.5
2016-Aug-04 10:33N 54°34' E 010°53'1010.0
2016-Aug-04 09:33N 54°33' E 010°36'10 9.8
2016-Aug-04 08:33N 54°29' E 010°20'10 9.7
2016-Aug-04 07:33N 54°22' E 010°09'4 3.8
2016-Aug-04 06:33N 54°22' E 010°03'15 7.3
2016-Aug-04 04:33N 54°17' E 009°39'17 7.6
2016-Aug-04 02:20N 54°05' E 009°19'6 8.3
2016-Aug-04 01:33N 53°59' E 009°16'7 6.7
2016-Aug-04 00:33N 53°54' E 009°09'2 1.6
2016-Aug-03 23:33N 53°53' E 009°06'1110.7
2016-Aug-03 22:33N 53°50' E 008°48'1211.5
2016-Aug-03 21:33N 53°58' E 008°34'1212.1
2016-Aug-03 20:33N 53°59' E 008°13'9 9.2
2016-Aug-03 19:33N 53°55' E 007°60'8 7.6
2016-Aug-03 18:33N 53°49' E 008°08'1110.9
2016-Aug-03 17:33N 53°41' E 008°21'1212.2
2016-Aug-03 16:32N 53°32' E 008°34'1111.6
2016-Aug-03 15:33N 53°21' E 008°30'7 6.7
2016-Aug-03 14:33N 53°14' E 008°28'2 2.0
2016-Aug-03 13:34N 53°12' E 008°27'5 4.9
2016-Aug-03 12:33N 53°10' E 008°20'3 0.1
2016-Aug-02 06:31N 53°09' E 008°16'0 0.0
2016-Aug-02 04:31N 53°09' E 008°16'0 0.0
2016-Aug-02 03:28N 53°09' E 008°16'0 0.0
2016-Aug-02 02:28N 53°09' E 008°16'0 0.0
2016-Aug-02 01:16N 53°09' E 008°16'0 0.0
2016-Aug-02 00:28N 53°09' E 008°16'0 0.0
2016-Aug-01 23:19N 53°09' E 008°16'0 0.0
2016-Aug-01 16:04N 53°09' E 008°16'0 0.0
2016-Aug-01 14:28N 53°09' E 008°16'0 0.0
2016-Aug-01 12:33N 53°09' E 008°16'5 5.3
2016-Aug-01 11:34N 53°11' E 008°24'4 4.2
2016-Aug-01 10:33N 53°14' E 008°28'0 0.0
2016-Aug-01 09:33N 53°14' E 008°28'0 0.1
2016-Aug-01 08:33N 53°14' E 008°28'7 7.3
2016-Aug-01 07:33N 53°21' E 008°30'10 9.6
2016-Aug-01 06:33N 53°31' E 008°33'1 0.1
2016-Aug-01 01:10N 53°31' E 008°34'0 0.0
2016-Jul-31 10:24N 53°31' E 008°34'4 4.2
2016-Jul-31 09:33N 53°35' E 008°32'10 9.4
2016-Jul-31 08:31N 53°42' E 008°20'10 9.9
2016-Jul-31 07:32N 53°48' E 008°08'9 9.2
2016-Jul-31 06:33N 53°51' E 007°54'9 9.1
2016-Jul-31 05:32N 53°53' E 007°39'10 9.9
2016-Jul-31 04:34N 53°52' E 007°22'1010.0
2016-Jul-31 03:34N 53°50' E 007°06'9 9.1
2016-Jul-31 02:33N 53°48' E 006°51'8 8.4
2016-Jul-31 01:33N 53°46' E 006°37'8 7.7
2016-Jul-31 00:33N 53°44' E 006°24'16 7.9
2016-Jul-30 22:33N 53°40' E 005°59'8 8.0
2016-Jul-30 21:33N 53°37' E 005°46'8 8.1
2016-Jul-30 20:33N 53°34' E 005°33'8 8.1
2016-Jul-30 19:32N 53°32' E 005°20'9 8.8
2016-Jul-30 18:33N 53°29' E 005°06'51 9.7
2016-Jul-30 13:14N 52°49' E 004°11'710.5
2016-Jul-30 12:33N 52°43' E 004°05'88 8.7
2016-Jul-30 02:23N 51°38' E 002°29'7 8.7
2016-Jul-30 01:33N 51°32' E 002°22'9 9.0
2016-Jul-30 00:33N 51°25' E 002°14'8 8.3
2016-Jul-29 23:33N 51°18' E 002°07'10 9.9
2016-Jul-29 22:33N 51°11' E 001°56'1010.4
2016-Jul-29 21:33N 51°03' E 001°44'1211.5
2016-Jul-29 20:33N 50°55' E 001°31'339 8.7
2016-Jul-28 05:33N 48°09' W 006°04'  
Track history (hours):
 
Tides and Currents Weather Stations Pressure Air Temp Water Temp Dewpoint Dewpoint Depression Visibility Wind Speed Wind Dir Waves Ship Positions

Ida

Last reported at 2016-Aug-05 04:31 UTC. Time now 2016-Aug-25 11:28 UTC.
Position N 54°56' E 015°34'.
Warning: this ship's position is 20 days out of date.

Length 82 m; draft 3 m.

Type: Cargo ship. MMSI: 210319000.

Date/timePositionNaut miles runAvg speedWind from/ knotsBaromVisibWave heightAir tempDewpointWater temp
2016-Aug-05 04:31N 54°56' E 015°34'1010.3
2016-Aug-05 03:31N 54°54' E 015°17'1010.0
2016-Aug-05 02:33N 54°52' E 015°00'1010.0
2016-Aug-05 01:33N 54°53' E 014°43'10 9.7
2016-Aug-05 00:33N 54°53' E 014°26'10 9.9
2016-Aug-04 23:33N 54°54' E 014°09'10 9.7
2016-Aug-04 22:33N 54°54' E 013°52'39 9.6
2016-Aug-04 18:33N 54°42' E 012°48'19 9.5
2016-Aug-04 16:31N 54°32' E 012°19'8 8.8
2016-Aug-04 15:33N 54°25' E 012°10'9 9.3
2016-Aug-04 14:33N 54°24' E 011°54'9 9.5
2016-Aug-04 13:34N 54°27' E 011°39'10 9.5
2016-Aug-04 12:33N 54°31' E 011°24'9 9.3
2016-Aug-04 11:33N 54°35' E 011°09'10 9.5
2016-Aug-04 10:33N 54°34' E 010°53'1010.0
2016-Aug-04 09:33N 54°33' E 010°36'10 9.8
2016-Aug-04 08:33N 54°29' E 010°20'10 9.7
2016-Aug-04 07:33N 54°22' E 010°09'4 3.8
2016-Aug-04 06:33N 54°22' E 010°03'15 7.3
2016-Aug-04 04:33N 54°17' E 009°39'17 7.6
2016-Aug-04 02:20N 54°05' E 009°19'6 8.3
2016-Aug-04 01:33N 53°59' E 009°16'7 6.7
2016-Aug-04 00:33N 53°54' E 009°09'2 1.6
2016-Aug-03 23:33N 53°53' E 009°06'1110.7
2016-Aug-03 22:33N 53°50' E 008°48'1211.5
2016-Aug-03 21:33N 53°58' E 008°34'1212.1
2016-Aug-03 20:33N 53°59' E 008°13'9 9.2
2016-Aug-03 19:33N 53°55' E 007°60'8 7.6
2016-Aug-03 18:33N 53°49' E 008°08'1110.9
2016-Aug-03 17:33N 53°41' E 008°21'1212.2
2016-Aug-03 16:32N 53°32' E 008°34'1111.6
2016-Aug-03 15:33N 53°21' E 008°30'7 6.7
2016-Aug-03 14:33N 53°14' E 008°28'2 2.0
2016-Aug-03 13:34N 53°12' E 008°27'5 4.9
2016-Aug-03 12:33N 53°10' E 008°20'3 0.1
2016-Aug-02 06:31N 53°09' E 008°16'0 0.0
2016-Aug-02 04:31N 53°09' E 008°16'0 0.0
2016-Aug-02 03:28N 53°09' E 008°16'0 0.0
2016-Aug-02 02:28N 53°09' E 008°16'0 0.0
2016-Aug-02 01:16N 53°09' E 008°16'0 0.0
2016-Aug-02 00:28N 53°09' E 008°16'0 0.0
2016-Aug-01 23:19N 53°09' E 008°16'0 0.0
2016-Aug-01 16:04N 53°09' E 008°16'0 0.0
2016-Aug-01 14:28N 53°09' E 008°16'0 0.0
2016-Aug-01 12:33N 53°09' E 008°16'5 5.3
2016-Aug-01 11:34N 53°11' E 008°24'4 4.2
2016-Aug-01 10:33N 53°14' E 008°28'0 0.0
2016-Aug-01 09:33N 53°14' E 008°28'0 0.1
2016-Aug-01 08:33N 53°14' E 008°28'7 7.3
2016-Aug-01 07:33N 53°21' E 008°30'10 9.6
2016-Aug-01 06:33N 53°31' E 008°33'1 0.1
2016-Aug-01 01:10N 53°31' E 008°34'0 0.0
2016-Jul-31 10:24N 53°31' E 008°34'4 4.2
2016-Jul-31 09:33N 53°35' E 008°32'10 9.4
2016-Jul-31 08:31N 53°42' E 008°20'10 9.9
2016-Jul-31 07:32N 53°48' E 008°08'9 9.2
2016-Jul-31 06:33N 53°51' E 007°54'9 9.1
2016-Jul-31 05:32N 53°53' E 007°39'10 9.9
2016-Jul-31 04:34N 53°52' E 007°22'1010.0
2016-Jul-31 03:34N 53°50' E 007°06'9 9.1
2016-Jul-31 02:33N 53°48' E 006°51'8 8.4
2016-Jul-31 01:33N 53°46' E 006°37'8 7.7
2016-Jul-31 00:33N 53°44' E 006°24'16 7.9
2016-Jul-30 22:33N 53°40' E 005°59'8 8.0
2016-Jul-30 21:33N 53°37' E 005°46'8 8.1
2016-Jul-30 20:33N 53°34' E 005°33'8 8.1
2016-Jul-30 19:32N 53°32' E 005°20'9 8.8
2016-Jul-30 18:33N 53°29' E 005°06'51 9.7
2016-Jul-30 13:14N 52°49' E 004°11'710.5
2016-Jul-30 12:33N 52°43' E 004°05'88 8.7
2016-Jul-30 02:23N 51°38' E 002°29'7 8.7
2016-Jul-30 01:33N 51°32' E 002°22'9 9.0
2016-Jul-30 00:33N 51°25' E 002°14'8 8.3
2016-Jul-29 23:33N 51°18' E 002°07'10 9.9
2016-Jul-29 22:33N 51°11' E 001°56'1010.4
2016-Jul-29 21:33N 51°03' E 001°44'1211.5
2016-Jul-29 20:33N 50°55' E 001°31'339 8.7
2016-Jul-28 05:33N 48°09' W 006°04'  

Dump ship's entire track history